createdAt,value
2018-12-03T05:01:22.193Z,92.80
2018-12-03T05:03:44.870Z,93.00
2018-12-03T05:06:07.498Z,93.10
2018-12-03T05:08:30.178Z,93.10
2018-12-03T05:10:52.848Z,93.30
2018-12-03T05:13:15.525Z,93.20
2018-12-03T06:01:51.633Z,91.40
2018-12-03T06:04:14.281Z,90.90
2018-12-03T06:06:36.930Z,90.80
2018-12-03T06:08:59.597Z,90.70
2018-12-03T06:11:22.410Z,90.70
2018-12-03T06:13:45.170Z,90.70
2018-12-03T07:02:21.622Z,89.90
2018-12-03T07:04:44.302Z,88.90
2018-12-03T07:07:06.975Z,89.00
2018-12-03T07:09:29.656Z,88.70
2018-12-03T07:11:52.366Z,88.80
2018-12-03T07:14:15.062Z,88.80
2018-12-03T08:02:35.911Z,85.80
2018-12-03T08:04:58.565Z,85.40
2018-12-03T08:07:21.229Z,86.10
2018-12-03T08:09:43.937Z,87.70
2018-12-03T08:12:06.626Z,88.90
2018-12-03T08:14:29.281Z,89.50
2018-12-03T09:00:14.140Z,85.40
2018-12-03T09:02:36.989Z,85.60
2018-12-03T09:04:59.641Z,84.80
2018-12-03T09:07:22.332Z,83.90
2018-12-03T09:09:44.965Z,83.70
2018-12-03T09:12:07.642Z,82.90
2018-12-03T09:14:33.196Z,82.70
2018-12-03T10:00:16.682Z,73.40
2018-12-03T10:02:39.375Z,73.10
2018-12-03T10:05:02.124Z,73.30
2018-12-03T10:07:24.794Z,74.40
2018-12-03T10:09:47.566Z,74.90
2018-12-03T10:12:10.179Z,75.20
2018-12-03T10:14:32.888Z,76.10
2018-12-03T11:00:27.446Z,74.70
2018-12-03T11:02:58.013Z,72.60
2018-12-03T11:05:29.499Z,70.70
2018-12-03T11:07:52.244Z,70.40
2018-12-03T11:10:14.953Z,70.60
2018-12-03T11:12:37.731Z,69.90
2018-12-03T11:15:01.209Z,69.60
2018-12-03T12:00:33.914Z,69.40
2018-12-03T12:02:56.638Z,70.10
2018-12-03T12:05:19.982Z,69.90
2018-12-03T12:07:45.562Z,69.40
2018-12-03T12:10:09.781Z,68.50
2018-12-03T12:12:33.030Z,68.50
2018-12-03T12:14:56.659Z,68.60
2018-12-03T13:00:28.646Z,69.60
2018-12-03T13:02:53.619Z,68.90
2018-12-03T13:05:16.637Z,68.80
2018-12-03T13:07:39.330Z,69.20
2018-12-03T13:10:02.057Z,68.50
2018-12-03T13:12:24.753Z,68.00
2018-12-03T13:14:47.449Z,67.60
2018-12-03T14:00:22.216Z,79.30
2018-12-03T14:02:53.170Z,79.10
2018-12-03T14:05:16.978Z,78.90
2018-12-03T14:07:44.611Z,79.20
2018-12-03T14:10:14.093Z,78.50
2018-12-03T14:13:03.788Z,78.40
2018-12-03T15:01:45.312Z,77.60
2018-12-03T15:04:12.761Z,78.30
2018-12-03T15:06:35.458Z,79.30
2018-12-03T15:09:13.357Z,80.70
2018-12-03T15:11:38.237Z,81.40
2018-12-03T15:14:01.047Z,81.50
2018-12-03T16:02:34.657Z,84.30
2018-12-03T16:04:57.435Z,84.30
2018-12-03T16:07:20.113Z,84.00
2018-12-03T16:09:42.766Z,83.80
2018-12-03T16:12:05.434Z,83.60
2018-12-03T16:14:28.101Z,83.50
2018-12-03T17:02:47.153Z,91.60
2018-12-03T17:05:09.973Z,91.60
2018-12-03T17:07:33.790Z,91.60
2018-12-03T17:09:56.488Z,91.80
2018-12-03T17:12:22.866Z,91.90
2018-12-03T17:14:45.561Z,92.00
2018-12-03T17:44:52.458Z,93.70
2018-12-03T17:47:15.190Z,93.70
2018-12-03T17:49:37.879Z,93.70
2018-12-03T17:52:01.414Z,93.70
2018-12-03T17:54:24.099Z,93.80
2018-12-03T19:01:38.150Z,94.20
2018-12-03T19:04:02.322Z,92.90
2018-12-03T19:06:23.995Z,92.50
2018-12-03T19:08:46.710Z,92.40
2018-12-03T19:11:09.378Z,92.20
2018-12-03T19:13:32.604Z,91.70
2018-12-03T20:02:09.849Z,88.00
2018-12-03T20:04:38.136Z,88.40
2018-12-03T20:07:00.797Z,88.70
2018-12-03T20:09:23.488Z,88.40
2018-12-03T20:11:46.170Z,89.30
2018-12-03T20:14:08.822Z,88.60
2018-12-03T21:02:43.295Z,90.00
2018-12-03T21:05:06.019Z,89.90
2018-12-03T21:07:32.357Z,89.40
2018-12-03T21:09:55.051Z,88.90
2018-12-03T21:12:17.708Z,88.60
2018-12-03T21:14:40.410Z,88.90
